Cape Vincent, New York
Current Conditions -  °F | °C
As of 3:00 PM on Thursday 23 Oct 2014 (Local Time) from CYGK Reporting Station
Broken Clouds Broken Clouds  
Wind Chill: 57°   Ceiling: 3500
Heat Index: 57°   Visibility: 15mi
Dew Point: 43°   Wind: 21mph
Humidity: 59%   Direction: 10°N
Pressure: 29.98"   Gusts: 28mph
Location:  44.13°N, 76.33°W
Report Text: CYGK 231900Z 01018G24KT 15SM BKN035 14/06 A2998 RMK SC7 SLP152
Loading
Personal Weather Stations






























Interactive Weather Map
Tropical Storm Tracking
New forecast layout! Learn more

10-Day Weather Forecast

Advertisements
Track Severe Weather on mobile